Terminal Aerodrome Forecast
Issued by NWS Twin Cities, MN

Home | Current Version | Previous Version | Graphics & Text | Print | Product List | Glossary On
Versions: 1 2 3 4 5 6 7 8 9 10 11 12 13 14 15 16 17 18 19 20 21 22 23 24 25
601
FTUS43 KMPX 270854 AAA
TAFMSP
TAF AMD
KMSP 270854Z 2709/2812 35007KT P6SM SCT012 OVC025
     FM271400 01006KT P6SM BKN025 OVC070
     FM271600 03007KT P6SM SCT030 BKN090
     FM271800 04006KT P6SM BKN250=

USA.gov is the U.S. government's official web portal to all federal, state and local government web resources and services.